Time;durP1;ratioP1;P1;durP2;ratioP2;P2;SDS_P1;SDS_P2;PMS_P1;PMS_P2;Temp;Humidity;BMP_temperature;BMP_pressure;BME280_temperature;BME280_humidity;BME280_pressure;Samples;Min_cycle;Max_cycle;Signal;HPM_P1;HPM_P2
2022/01/21 00:01:38;;;;;;;19.88;5.38;;;;;;;-1.09;100.00;103241.22;5247512;28;20033;-69
2022/01/21 00:04:10;;;;;;;20.90;5.90;;;;;;;-1.08;100.00;103235.09;5248523;28;20690;-69
2022/01/21 00:06:42;;;;;;;20.40;5.28;;;;;;;-1.11;100.00;103240.28;5248683;28;20028;-69
2022/01/21 00:09:13;;;;;;;23.83;5.82;;;;;;;-1.12;100.00;103249.03;5249951;28;20553;-69
2022/01/21 00:11:45;;;;;;;25.45;5.93;;;;;;;-1.16;100.00;103248.09;5245324;28;20558;-69
2022/01/21 00:14:16;;;;;;;22.90;5.57;;;;;;;-1.17;100.00;103250.69;5254040;28;20382;-69
2022/01/21 00:16:48;;;;;;;25.92;5.40;;;;;;;-1.19;100.00;103251.59;5245009;28;20036;-69
2022/01/21 00:19:21;;;;;;;19.08;5.03;;;;;;;-1.21;100.00;103248.06;5248965;28;20062;-69
2022/01/21 00:30:25;;;;;;;20.65;4.40;;;;;;;-1.20;100.00;103249.81;5246839;28;20456;-69
2022/01/21 00:32:56;;;;;;;18.88;4.20;;;;;;;-1.25;100.00;103248.00;5247596;28;20043;-69
2022/01/21 00:35:27;;;;;;;18.08;4.97;;;;;;;-1.24;100.00;103236.69;5248075;28;20051;-69
2022/01/21 00:37:59;;;;;;;19.60;4.60;;;;;;;-1.22;100.00;103235.81;5238541;28;20561;-69
2022/01/21 00:40:32;;;;;;;22.38;4.50;;;;;;;-1.28;100.00;103237.50;5241813;28;20086;-69
2022/01/21 00:46:04;;;;;;;22.83;4.57;;;;;;;-1.31;100.00;103235.72;5243633;28;20067;-69
2022/01/21 00:48:35;;;;;;;24.92;4.63;;;;;;;-1.26;100.00;103231.41;5241554;28;20029;-69
2022/01/21 00:51:07;;;;;;;17.70;4.70;;;;;;;-1.30;100.00;103234.84;5252799;28;20398;-69
2022/01/21 00:53:38;;;;;;;20.65;4.38;;;;;;;-1.32;100.00;103236.59;5248182;28;20048;-69
2022/01/21 00:56:09;;;;;;;19.98;4.78;;;;;;;-1.35;100.00;103251.38;5244318;28;20049;-69
2022/01/21 00:58:41;;;;;;;19.30;4.93;;;;;;;-1.33;100.00;103247.91;5238381;28;20170;-69
2022/01/21 01:01:12;;;;;;;22.98;4.20;;;;;;;-1.36;100.00;103253.13;5243008;28;20037;-69
2022/01/21 01:03:44;;;;;;;21.60;3.78;;;;;;;-1.42;100.00;103256.56;5247806;28;20029;-69
2022/01/21 01:06:15;;;;;;;16.02;4.45;;;;;;;-1.42;100.00;103256.56;5245992;28;20079;-69
2022/01/21 01:08:48;;;;;;;21.20;4.03;;;;;;;-1.51;100.00;103259.03;5240641;28;20040;-69
2022/01/21 01:23:23;;;;;;;18.52;4.10;;;;;;;-1.47;100.00;103250.38;5240768;28;20045;-69
2022/01/21 01:28:14;;;;;;;20.38;4.07;;;;;;;-1.61;100.00;103249.28;5240026;28;20473;-69
2022/01/21 01:30:45;;;;;;;14.82;3.80;;;;;;;-1.70;100.00;103242.22;5242403;28;20025;-69
2022/01/21 01:33:23;;;;;;;23.08;4.15;;;;;;;-1.65;100.00;103243.16;5246397;28;20041;-69
2022/01/21 01:35:55;;;;;;;18.58;4.20;;;;;;;-1.68;100.00;103240.50;5243372;28;20513;-69
2022/01/21 01:38:56;;;;;;;16.80;3.67;;;;;;;-1.66;100.00;103230.94;5243664;28;20044;-69
2022/01/21 01:41:23;;;;;;;17.02;4.10;;;;;;;-1.75;100.00;103237.78;5241612;28;20084;-69
2022/01/21 01:49:37;;;;;;;13.13;3.65;;;;;;;-1.74;100.00;103240.41;5244054;28;20338;-69
2022/01/21 01:52:11;;;;;;;17.85;3.50;;;;;;;-1.73;100.00;103243.91;5257401;28;20152;-69
2022/01/21 01:54:49;;;;;;;;;;;;;;;-1.77;100.00;103229.91;5244568;28;20128;-69
2022/01/21 01:57:21;;;;;;;11.25;3.25;;;;;;;-1.81;100.00;103231.59;5244851;28;19921;-69
2022/01/21 01:59:52;;;;;;;18.73;4.18;;;;;;;-1.75;100.00;103238.66;5243318;28;20636;-69
2022/01/21 02:02:23;;;;;;;19.90;3.50;;;;;;;-1.72;100.00;103228.22;5247615;28;20029;-69
2022/01/21 02:04:54;;;;;;;14.20;3.45;;;;;;;-1.75;100.00;103222.94;5252184;28;20674;-69
2022/01/21 02:07:26;;;;;;;21.75;4.03;;;;;;;-1.67;100.00;103225.66;5244845;28;20033;-69
2022/01/21 02:09:57;;;;;;;18.42;3.35;;;;;;;-1.69;100.00;103230.88;5245767;28;20109;-69
2022/01/21 02:12:28;;;;;;;17.75;3.92;;;;;;;-1.74;100.00;103226.47;5250984;28;20045;-69
2022/01/21 02:15:01;;;;;;;15.35;3.60;;;;;;;-1.77;100.00;103229.91;5246078;28;20032;-69
2022/01/21 02:22:55;;;;;;;18.15;3.58;;;;;;;-1.77;100.00;103241.25;5242126;28;20029;-69
2022/01/21 02:25:26;;;;;;;16.33;3.53;;;;;;;-1.79;100.00;103232.50;5243346;28;20037;-69
2022/01/21 02:27:59;;;;;;;16.83;3.60;;;;;;;-1.88;100.00;103232.41;5242725;28;20072;-69
2022/01/21 02:30:30;;;;;;;19.15;3.35;;;;;;;-1.80;100.00;103233.38;5240953;28;20098;-69
2022/01/21 02:33:01;;;;;;;12.63;3.67;;;;;;;-1.88;100.00;103221.03;5248723;28;20049;-69
2022/01/21 02:35:32;;;;;;;18.95;4.78;;;;;;;-1.92;100.00;103224.47;5249155;28;20032;-69
2022/01/21 02:38:04;;;;;;;14.63;3.45;;;;;;;-1.89;100.00;103220.16;5242866;28;20554;-69
2022/01/21 02:40:35;;;;;;;20.23;3.58;;;;;;;-1.96;100.00;103213.06;5242941;28;20580;-69
2022/01/21 02:43:07;;;;;;;14.35;3.33;;;;;;;-1.95;100.00;103220.06;5252763;28;20499;-69
2022/01/21 02:45:43;;;;;;;18.08;3.42;;;;;;;-1.91;100.00;103227.09;5254758;28;20032;-69
2022/01/21 02:48:15;;;;;;;21.88;3.40;;;;;;;-2.00;100.00;103225.22;5251971;28;20025;-69
2022/01/21 02:50:47;;;;;;;16.20;3.78;;;;;;;-1.94;100.00;103239.25;5248353;28;20021;-69
2022/01/21 02:55:52;;;;;;;18.55;3.60;;;;;;;-2.00;100.00;103233.06;5255346;28;20041;-69
2022/01/21 02:58:25;;;;;;;20.65;3.58;;;;;;;-2.04;100.00;103236.50;5256796;28;20083;-69
2022/01/21 03:00:56;;;;;;;16.65;3.67;;;;;;;-1.97;100.00;103240.97;5245325;28;20029;-69
2022/01/21 03:03:28;;;;;;;12.73;3.08;;;;;;;-1.99;100.00;103247.06;5247812;28;20037;-69
2022/01/21 03:06:01;;;;;;;23.30;4.10;;;;;;;-1.99;100.00;103245.31;5249219;28;20025;-69
2022/01/21 03:08:32;;;;;;;21.23;3.85;;;;;;;-2.02;100.00;103241.75;5251498;28;20211;-69
2022/01/21 03:11:03;;;;;;;21.67;3.95;;;;;;;-2.05;100.00;103239.09;5253727;28;20417;-69
2022/01/21 03:13:34;;;;;;;16.45;3.78;;;;;;;-2.02;100.00;103241.75;5249892;28;20024;-69
2022/01/21 03:16:06;;;;;;;20.63;4.10;;;;;;;-2.08;100.00;103246.91;5254285;28;20098;-69
2022/01/21 03:18:38;;;;;;;16.67;3.60;;;;;;;-2.08;100.00;103239.06;5255431;28;20033;-69
2022/01/21 03:21:15;;;;;;;16.02;3.40;;;;;;;-2.04;100.00;103235.63;5253248;28;20021;-69
2022/01/21 03:23:49;;;;;;;19.42;3.75;;;;;;;-2.11;100.00;103246.84;5248648;28;20075;-69
2022/01/21 03:26:25;;;;;;;20.10;3.90;;;;;;;-2.07;100.00;103248.66;5251420;28;20032;-69
2022/01/21 03:28:59;;;;;;;16.98;3.63;;;;;;;-2.13;100.00;103246.81;5251493;28;20033;-69
2022/01/21 03:31:31;;;;;;;17.73;3.97;;;;;;;-2.12;100.00;103252.97;5243106;28;20034;-69
2022/01/21 03:34:03;;;;;;;20.58;3.40;;;;;;;-2.08;100.00;103262.59;5246940;28;20033;-69
2022/01/21 03:36:35;;;;;;;20.63;4.13;;;;;;;-2.10;100.00;103262.56;5248242;28;20025;-69
2022/01/21 03:39:07;;;;;;;16.35;3.50;;;;;;;-1.96;100.00;103257.53;5250635;28;20051;-69
2022/01/21 03:41:39;;;;;;;16.23;3.50;;;;;;;-2.08;100.00;103262.59;5254188;28;20108;-69
2022/01/21 03:44:10;;;;;;;17.42;3.88;;;;;;;-2.09;100.00;103261.72;5254721;28;20581;-69
2022/01/21 03:46:41;;;;;;;16.90;3.72;;;;;;;-2.10;100.00;103264.31;5280934;28;20589;-69
2022/01/21 03:49:13;;;;;;;14.45;3.42;;;;;;;-2.02;100.00;103262.69;5257172;28;20470;-69
2022/01/21 03:51:44;;;;;;;21.92;3.67;;;;;;;-2.01;100.00;103265.34;5248722;28;20028;-69
2022/01/21 03:54:15;;;;;;;17.20;3.35;;;;;;;-2.10;100.00;103253.84;5256310;28;20122;-69
2022/01/21 03:56:46;;;;;;;18.17;3.90;;;;;;;-2.05;100.00;103257.41;5252885;28;20036;-70
2022/01/21 03:59:18;;;;;;;17.35;3.10;;;;;;;-2.17;100.00;103260.72;5250784;28;20048;-69
2022/01/21 04:01:49;;;;;;;15.75;3.13;;;;;;;-2.14;100.00;103257.28;5253898;28;20104;-69
2022/01/21 04:04:20;;;;;;;14.48;3.08;;;;;;;-2.12;100.00;103260.81;5241728;28;20039;-69
2022/01/21 04:06:51;;;;;;;19.35;3.60;;;;;;;-2.21;100.00;103265.00;5246544;28;20133;-69
2022/01/21 04:09:23;;;;;;;18.15;3.47;;;;;;;-2.18;100.00;103254.59;5277641;28;20427;-69
2022/01/21 04:11:54;;;;;;;12.82;3.15;;;;;;;-2.18;100.00;103257.22;5241177;28;20574;-69
2022/01/21 04:14:25;;;;;;;17.42;3.28;;;;;;;-2.20;100.00;103260.69;5242467;28;20421;-69
2022/01/21 04:16:56;;;;;;;14.80;2.85;;;;;;;-2.19;100.00;103246.75;5243656;28;20055;-69
2022/01/21 04:19:28;;;;;;;22.95;3.22;;;;;;;-2.25;100.00;103259.72;5241892;28;20487;-69
2022/01/21 04:21:59;;;;;;;22.58;3.28;;;;;;;-2.22;100.00;103252.81;5246325;28;20029;-69
2022/01/21 04:24:30;;;;;;;15.13;3.25;;;;;;;-2.19;100.00;103259.81;5241435;28;20952;-69
2022/01/21 04:27:02;;;;;;;18.25;3.72;;;;;;;-2.24;100.00;103253.66;5243001;28;20033;-69
2022/01/21 04:29:33;;;;;;;17.38;3.38;;;;;;;-2.25;100.00;103257.97;5245739;28;20127;-69
2022/01/21 04:32:05;;;;;;;20.42;3.67;;;;;;;-2.26;100.00;103260.56;5241944;28;20036;-69
2022/01/21 04:34:37;;;;;;;18.10;3.03;;;;;;;-2.27;100.00;103246.63;5241172;28;20033;-69
2022/01/21 04:37:11;;;;;;;16.08;3.08;;;;;;;-2.30;100.00;103251.81;5246663;28;20037;-69
2022/01/21 04:39:56;;;;;;;22.13;3.47;;;;;;;-2.28;100.00;103252.72;5246852;28;20036;-69
2022/01/21 04:48:07;;;;;;;13.55;2.80;;;;;;;-2.19;100.00;103251.97;5243459;28;20040;-69
2022/01/21 04:50:54;;;;;;;12.50;2.70;;;;;;;-2.23;100.00;103256.25;5250440;28;20021;-69
2022/01/21 04:53:27;;;;;;;24.50;3.50;;;;;;;-2.19;100.00;103251.97;5239648;28;20036;-69
2022/01/21 04:55:58;;;;;;;13.73;2.80;;;;;;;-2.13;100.00;103245.94;5240125;28;20021;-69
2022/01/21 04:58:29;;;;;;;13.57;2.85;;;;;;;-2.20;100.00;103240.63;5240428;28;20836;-69
2022/01/21 05:01:04;;;;;;;14.05;2.60;;;;;;;-2.15;100.00;103250.28;5243103;28;20390;-69
2022/01/21 05:03:38;;;;;;;16.30;3.15;;;;;;;-2.04;100.00;103246.97;5243594;28;20128;-69
2022/01/21 05:06:09;;;;;;;15.18;2.42;;;;;;;-2.13;100.00;103240.72;5242366;28;20393;-69
2022/01/21 05:11:16;;;;;;;15.52;2.92;;;;;;;-2.20;100.00;103218.84;5245209;28;20049;-69
2022/01/21 05:14:09;;;;;;;16.30;2.78;;;;;;;-2.17;100.00;103232.84;5239614;28;20825;-69
2022/01/21 05:16:46;;;;;;;14.85;4.03;;;;;;;-2.02;100.00;103233.91;5247174;28;20135;-69
2022/01/21 05:19:19;;;;;;;17.08;3.28;;;;;;;-2.01;100.00;103236.56;5255905;28;20179;-69
2022/01/21 05:21:51;;;;;;;17.25;3.20;;;;;;;-2.05;100.00;103233.84;5244816;28;20173;-69
2022/01/21 05:24:22;;;;;;;19.33;3.40;;;;;;;-2.03;100.00;103243.50;5246950;28;20419;-69
2022/01/21 05:26:56;;;;;;;20.63;3.60;;;;;;;-1.97;100.00;103242.72;5244472;28;20037;-69
2022/01/21 05:29:29;;;;;;;16.25;3.15;;;;;;;-1.99;100.00;103249.66;5243903;28;20478;-69
2022/01/21 05:32:04;;;;;;;19.48;3.95;;;;;;;-2.02;100.00;103249.59;5249430;28;20025;-69
2022/01/21 05:34:36;;;;;;;17.35;3.53;;;;;;;-2.13;100.00;103252.06;5250436;28;20033;-69
2022/01/21 05:37:08;;;;;;;18.58;3.65;;;;;;;-2.11;100.00;103249.47;5250432;28;20095;-69
2022/01/21 05:39:39;;;;;;;17.05;4.18;;;;;;;-2.12;100.00;103255.56;5249036;28;20056;-69
2022/01/21 05:42:10;;;;;;;17.48;4.32;;;;;;;-2.12;100.00;103256.44;5249276;28;20471;-69
2022/01/21 05:47:13;;;;;;;24.00;5.47;;;;;;;-2.18;100.00;103257.22;5244787;28;20399;-69
2022/01/21 05:49:44;;;;;;;19.23;5.05;;;;;;;-2.20;100.00;103245.00;5246991;28;20032;-69
2022/01/21 05:52:17;;;;;;;23.40;5.10;;;;;;;-2.18;100.00;103245.91;5244704;28;20476;-69
2022/01/21 05:54:49;;;;;;;17.42;4.45;;;;;;;-2.21;100.00;103245.84;5244919;28;20082;-69
2022/01/21 05:57:20;;;;;;;20.30;5.28;;;;;;;-2.21;100.00;103248.44;5249253;28;20137;-69
2022/01/21 05:59:51;;;;;;;15.23;4.88;;;;;;;-2.23;100.00;103261.50;5249509;28;20053;-69
2022/01/21 06:02:23;;;;;;;16.48;6.00;;;;;;;-2.25;100.00;103251.88;5248773;28;20037;-69
2022/01/21 06:04:55;;;;;;;21.95;6.07;;;;;;;-2.19;100.00;103265.94;5250590;28;20045;-69
2022/01/21 06:07:27;;;;;;;15.60;6.03;;;;;;;-2.24;100.00;103264.97;5247684;28;20043;-69
2022/01/21 06:09:58;;;;;;;22.77;6.80;;;;;;;-2.21;100.00;103265.00;5251375;28;20029;-69
2022/01/21 06:12:30;;;;;;;25.38;6.97;;;;;;;-2.24;100.00;103264.97;5243929;28;20608;-69
2022/01/21 06:15:01;;;;;;;20.17;7.25;;;;;;;-2.24;100.00;103264.97;5246795;28;20037;-69
2022/01/21 06:17:32;;;;;;;18.98;6.93;;;;;;;-2.23;100.00;103271.09;5248221;28;20123;-69
2022/01/21 06:20:04;;;;;;;19.92;7.22;;;;;;;-2.25;100.00;103273.66;5246954;28;20559;-69
2022/01/21 06:22:35;;;;;;;23.25;8.27;;;;;;;-2.27;100.00;103277.13;5244878;28;20033;-69
2022/01/21 06:25:07;;;;;;;24.13;9.32;;;;;;;-2.19;100.00;103268.56;5243532;28;20040;-69
2022/01/21 06:27:39;;;;;;;22.88;7.80;;;;;;;-2.21;100.00;103269.38;5242994;28;20471;-69
2022/01/21 06:30:11;;;;;;;22.17;8.38;;;;;;;-2.25;100.00;103280.63;5243338;28;20475;-69
2022/01/21 06:32:43;;;;;;;25.10;8.90;;;;;;;-2.24;100.00;103288.53;5245913;28;20174;-69
2022/01/21 06:35:14;;;;;;;22.95;8.73;;;;;;;-2.20;100.00;103287.72;5251739;28;20475;-69
2022/01/21 06:37:45;;;;;;;19.98;8.25;;;;;;;-2.15;100.00;103293.00;5250017;28;20037;-69
2022/01/21 06:40:20;;;;;;;25.45;9.85;;;;;;;-2.10;100.00;103293.09;5248367;28;20127;-69
2022/01/21 06:42:51;;;;;;;;;;;;;;;-2.05;100.00;103301.88;5248651;28;20502;-69
2022/01/21 06:45:22;;;;;;;23.58;9.80;;;;;;;-2.01;100.00;103306.31;5251901;28;19939;-69
2022/01/21 06:47:54;;;;;;;28.67;11.30;;;;;;;-1.86;100.00;103303.03;5249022;28;20033;-69
2022/01/21 06:50:26;;;;;;;28.25;11.57;;;;;;;-1.82;100.00;103318.81;5247564;28;20036;-69
2022/01/21 06:52:57;;;;;;;28.05;12.07;;;;;;;-1.72;100.00;103308.50;5247703;28;20040;-69
2022/01/21 06:55:28;;;;;;;26.15;12.88;;;;;;;-1.60;100.00;103316.50;5247470;28;20466;-69
2022/01/21 06:58:00;;;;;;;35.83;13.73;;;;;;;-1.61;100.00;103312.13;5254015;28;20171;-69
2022/01/21 07:00:32;;;;;;;30.15;13.63;;;;;;;-1.58;100.00;103312.16;5243854;28;20546;-69
2022/01/21 07:03:03;;;;;;;33.92;13.80;;;;;;;-1.49;100.00;103314.06;5252756;28;20045;-69
2022/01/21 07:05:34;;;;;;;28.58;14.27;;;;;;;-1.42;100.00;103319.38;5242791;28;20431;-69
2022/01/21 07:08:06;;;;;;;29.45;14.15;;;;;;;-1.40;100.00;103315.06;5247988;28;20472;-69
2022/01/21 07:10:37;;;;;;;36.13;15.13;;;;;;;-1.31;100.00;103329.13;5216454;28;1012380;-69
2022/01/21 07:13:10;;;;;;;36.28;17.35;;;;;;;-1.22;100.00;103339.72;5248875;28;20119;-69
2022/01/21 07:15:41;;;;;;;34.15;16.73;;;;;;;-1.16;100.00;103339.78;5250899;28;20106;-69
2022/01/21 07:18:12;;;;;;;37.53;17.98;;;;;;;-1.06;100.00;103335.53;5254143;28;20033;-69
2022/01/21 07:20:44;;;;;;;40.22;18.38;;;;;;;-1.04;100.00;103325.97;5252771;28;20036;-69
2022/01/21 07:23:15;;;;;;;36.17;18.17;;;;;;;-0.95;100.00;103333.94;5255325;28;20233;-70
2022/01/21 07:25:46;;;;;;;36.85;18.83;;;;;;;-0.90;100.00;103333.97;5245168;28;20039;-70
2022/01/21 07:28:18;;;;;;;39.47;19.88;;;;;;;-0.87;100.00;103339.25;5241303;28;20037;-70
2022/01/21 07:30:49;;;;;;;42.17;20.10;;;;;;;-0.78;100.00;103334.13;5245328;28;20029;-70
2022/01/21 07:33:21;;;;;;;44.92;22.08;;;;;;;-0.74;100.00;103338.53;5252408;28;20020;-70
2022/01/21 07:35:52;;;;;;;36.33;19.92;;;;;;;-0.70;100.00;103345.56;5244173;28;20391;-70
2022/01/21 07:38:24;;;;;;;41.90;21.52;;;;;;;-0.67;100.00;103340.38;5246354;28;20471;-70
2022/01/21 07:40:55;;;;;;;42.10;20.75;;;;;;;-0.62;100.00;103356.13;5253951;28;20032;-70
2022/01/21 07:43:26;;;;;;;39.92;20.83;;;;;;;-0.56;100.00;103350.94;5253161;28;20087;-70
2022/01/21 07:45:57;;;;;;;37.05;21.13;;;;;;;-0.54;100.00;103353.59;5238909;28;20037;-70
2022/01/21 07:48:29;;;;;;;36.90;21.00;;;;;;;-0.53;100.00;103344.88;5249631;28;20035;-70
2022/01/21 07:51:00;;;;;;;45.00;21.50;;;;;;;-0.52;100.00;103336.13;5242765;28;20017;-70
2022/01/21 07:53:31;;;;;;;40.67;20.52;;;;;;;-0.56;100.00;103352.69;5254894;28;20906;-70
2022/01/21 07:56:03;;;;;;;38.30;19.45;;;;;;;-0.55;100.00;103346.63;5251528;28;20072;-70
2022/01/21 07:58:34;;;;;;;34.03;18.85;;;;;;;-0.56;100.00;103345.72;5252336;28;20032;-70
2022/01/21 08:01:06;;;;;;;30.77;17.50;;;;;;;-0.62;100.00;103345.66;5253062;28;20765;-70
2022/01/21 08:03:37;;;;;;;31.23;18.27;;;;;;;-0.60;100.00;103336.06;5249848;28;20025;-70
2022/01/21 08:06:08;;;;;;;32.95;16.77;;;;;;;-0.66;100.00;103322.88;5249430;28;20507;-70
2022/01/21 08:08:40;;;;;;;32.58;16.17;;;;;;;-0.68;100.00;103335.97;5252098;28;20144;-70
2022/01/21 08:11:11;;;;;;;30.42;16.52;;;;;;;-0.69;100.00;103328.09;5254084;28;20040;-70
2022/01/21 08:13:42;;;;;;;31.80;15.95;;;;;;;-0.71;100.00;103335.06;5252793;28;20088;-70
2022/01/21 08:16:14;;;;;;;27.67;16.33;;;;;;;-0.73;100.00;103324.59;5253109;28;20029;-70
2022/01/21 08:18:45;;;;;;;25.95;15.18;;;;;;;-0.76;100.00;103327.16;5249830;28;20104;-70
2022/01/21 08:21:20;;;;;;;29.25;16.50;;;;;;;-0.80;100.00;103322.75;5254633;28;20036;-70
2022/01/21 08:23:53;;;;;;;26.20;15.75;;;;;;;-0.80;100.00;103321.00;5253686;28;20108;-70
2022/01/21 08:26:30;;;;;;;31.42;15.65;;;;;;;-0.86;100.00;103317.44;5254340;28;20051;-70
2022/01/21 08:29:04;;;;;;;26.75;15.35;;;;;;;-0.86;100.00;103315.69;5248199;28;20067;-70
2022/01/21 08:31:35;;;;;;;29.67;15.25;;;;;;;-0.86;100.00;103317.44;5252695;28;20025;-70
2022/01/21 08:34:06;;;;;;;26.50;14.63;;;;;;;-0.84;100.00;103311.34;5253042;28;20033;-70
2022/01/21 08:36:38;;;;;;;28.23;14.77;;;;;;;-0.77;100.00;103316.66;5254741;28;20059;-70
2022/01/21 08:39:10;;;;;;;33.50;15.85;;;;;;;-0.76;100.00;103318.44;5253068;28;20025;-70
2022/01/21 08:41:42;;;;;;;29.10;16.10;;;;;;;-0.76;100.00;103335.03;5252775;28;20032;-70
2022/01/21 08:44:13;;;;;;;33.95;16.73;;;;;;;-0.69;100.00;103336.84;5253407;28;20029;-70
2022/01/21 08:46:45;;;;;;;30.73;15.50;;;;;;;-0.72;100.00;103338.56;5253958;28;20017;-70
2022/01/21 08:49:19;;;;;;;33.85;16.13;;;;;;;-0.65;100.00;103329.91;5251734;28;20394;-69
2022/01/21 08:51:53;;;;;;;25.45;15.05;;;;;;;-0.69;100.00;103326.38;5253192;28;20025;-69
2022/01/21 08:54:26;;;;;;;25.35;14.77;;;;;;;-0.69;100.00;103342.09;5252553;28;20145;-69
2022/01/21 08:56:58;;;;;;;27.48;14.45;;;;;;;-0.71;100.00;103333.34;5254123;28;20037;-69
2022/01/21 08:59:31;;;;;;;32.63;15.07;;;;;;;-0.67;100.00;103340.38;5254658;28;20102;-69
2022/01/21 09:02:02;;;;;;;32.30;15.88;;;;;;;-0.67;100.00;103335.13;5252220;28;20022;-69
2022/01/21 09:04:34;;;;;;;32.03;16.45;;;;;;;-0.51;100.00;103343.16;5251682;28;20036;-69
2022/01/21 09:07:05;;;;;;;33.05;16.73;;;;;;;-0.47;100.00;103340.56;5251764;28;20032;-69
2022/01/21 09:09:36;;;;;;;29.30;16.23;;;;;;;-0.51;100.00;103330.91;5247166;28;20056;-69
2022/01/21 09:12:08;;;;;;;31.40;14.68;;;;;;;-0.43;100.00;103304.75;5251214;28;20048;-69
2022/01/21 09:14:39;;;;;;;28.33;14.50;;;;;;;-0.37;100.00;103309.19;5251237;28;20037;-69
2022/01/21 09:17:10;;;;;;;27.25;14.93;;;;;;;-0.40;100.00;103292.56;5250232;28;20017;-69
2022/01/21 09:19:42;;;;;;;27.73;13.55;;;;;;;-0.37;100.00;103301.31;5255020;28;20059;-69
2022/01/21 09:22:13;;;;;;;25.67;14.18;;;;;;;-0.29;100.00;103299.63;5252066;28;20036;-69
2022/01/21 09:24:45;;;;;;;25.67;13.30;;;;;;;-0.35;100.00;103295.19;5248725;28;20119;-70
2022/01/21 09:27:16;;;;;;;26.92;14.18;;;;;;;-0.33;100.00;103303.97;5253492;28;20037;-69
2022/01/21 09:29:47;;;;;;;32.08;14.38;;;;;;;-0.23;100.00;103305.81;5252826;28;20029;-69
2022/01/21 09:32:19;;;;;;;29.55;14.07;;;;;;;-0.26;100.00;103308.41;5247739;28;20082;-69
2022/01/21 09:34:50;;;;;;;26.30;13.68;;;;;;;-0.18;100.00;103315.47;5252622;28;20489;-69
2022/01/21 09:37:22;;;;;;;24.73;13.82;;;;;;;-0.12;100.00;103313.75;5254457;28;20029;-69
2022/01/21 09:39:53;;;;;;;30.55;14.27;;;;;;;0.07;100.00;103319.16;5248329;28;20032;-69
2022/01/21 09:42:25;;;;;;;27.65;13.65;;;;;;;0.04;100.00;103320.03;5251322;28;20086;-69
2022/01/21 09:44:58;;;;;;;30.00;13.35;;;;;;;0.05;100.00;103324.38;5253105;28;20460;-69
2022/01/21 09:47:32;;;;;;;33.72;15.13;;;;;;;0.41;100.00;103329.91;5251830;28;20792;-69
2022/01/21 09:50:03;;;;;;;37.22;15.45;;;;;;;0.49;100.00;103326.44;5250570;28;20053;-69
2022/01/21 09:52:36;;;;;;;42.58;15.32;;;;;;;0.65;100.00;103332.63;5252587;28;20124;-69
2022/01/21 09:55:07;;;;;;;30.70;15.43;;;;;;;0.72;100.00;103341.44;5248306;28;20040;-69
2022/01/21 09:57:43;;;;;;;34.92;15.13;;;;;;;0.75;100.00;103344.09;5254141;28;20037;-69
2022/01/21 10:00:16;;;;;;;28.98;13.45;;;;;;;0.88;100.00;103343.28;5248610;28;20137;-70
2022/01/21 10:02:49;;;;;;;28.35;12.82;;;;;;;0.95;100.00;103345.03;5250536;28;20033;-70
2022/01/21 10:05:20;;;;;;;26.17;12.45;;;;;;;1.03;100.00;103344.19;5250046;28;20033;-70
2022/01/21 10:07:52;;;;;;;27.88;11.88;;;;;;;1.01;100.00;103345.94;5253389;28;20036;-70
2022/01/21 10:10:23;;;;;;;25.30;11.23;;;;;;;1.10;100.00;103349.47;5254826;28;20083;-70
2022/01/21 10:13:01;;;;;;;23.73;10.80;;;;;;;1.20;100.00;103355.66;5252168;28;20030;-70
2022/01/21 10:15:34;;;;;;;23.88;9.93;;;;;;;1.20;100.00;103363.53;5253908;28;20029;-70
2022/01/21 10:18:14;;;;;;;28.35;10.57;;;;;;;1.31;100.00;103359.19;5254386;28;20376;-68
2022/01/21 10:21:00;;;;;;;23.73;10.30;;;;;;;1.49;100.00;103376.75;5254029;28;20025;-69
2022/01/21 10:23:36;;;;;;;28.42;9.65;;;;;;;1.75;100.00;103375.94;5253645;28;20067;-69
2022/01/21 10:26:14;;;;;;;14.77;8.15;;;;;;;1.91;100.00;103367.16;5255105;28;20131;-69
2022/01/21 10:28:54;;;;;;;17.25;7.80;;;;;;;1.93;100.00;103370.69;5252204;28;20025;-69
2022/01/21 10:31:27;;;;;;;16.42;7.38;;;;;;;1.81;100.00;103369.81;5255395;28;20483;-69
2022/01/21 10:34:04;;;;;;;20.38;7.45;;;;;;;1.90;100.00;103372.47;5256191;28;20020;-69
2022/01/21 10:36:44;;;;;;;25.45;7.75;;;;;;;1.96;100.00;103367.19;5250504;28;20395;-69
2022/01/21 10:39:28;;;;;;;20.77;7.75;;;;;;;2.06;100.00;103371.56;5251841;28;20029;-69
2022/01/21 10:42:01;;;;;;;23.90;8.43;;;;;;;2.21;100.00;103364.56;5252732;28;20070;-70
2022/01/21 10:44:32;;;;;;;20.13;7.63;;;;;;;2.35;100.00;103373.31;5253818;28;20021;-70
2022/01/21 10:47:09;;;;;;;17.10;7.80;;;;;;;2.57;100.00;103386.44;5255013;28;20033;-70
2022/01/21 10:49:43;;;;;;;19.25;6.90;;;;;;;2.78;100.00;103381.13;5255343;28;20025;-70
2022/01/21 10:52:15;;;;;;;21.55;6.50;;;;;;;2.95;100.00;103383.69;5254859;28;20457;-71
2022/01/21 10:54:50;;;;;;;16.30;6.85;;;;;;;3.07;100.00;103377.53;5254203;28;20092;-72
2022/01/21 10:57:21;;;;;;;16.58;6.50;;;;;;;3.18;100.00;103367.78;5251494;28;20475;-72
2022/01/21 10:59:59;;;;;;;16.75;5.13;;;;;;;3.36;100.00;103364.19;5254507;28;20486;-71
2022/01/21 11:02:30;;;;;;;17.52;5.63;;;;;;;3.48;100.00;103361.47;5250438;28;20119;-71
2022/01/21 11:05:10;;;;;;;16.75;5.75;;;;;;;3.58;100.00;103367.56;5254853;28;20167;-73
2022/01/21 11:07:58;;;;;;;16.80;5.00;;;;;;;3.56;100.00;103369.31;5250941;28;20053;-72
2022/01/21 11:10:32;;;;;;;16.20;5.57;;;;;;;3.52;100.00;103359.69;5252426;28;20062;-72
2022/01/21 11:13:24;;;;;;;13.93;5.75;;;;;;;3.52;100.00;103344.72;5252478;28;20382;-73
2022/01/21 11:16:09;;;;;;;19.00;6.18;;;;;;;3.54;100.00;103337.66;5251632;28;20479;-73
2022/01/21 11:19:09;;;;;;;17.67;6.15;;;;;;;3.65;100.00;103342.88;5253286;28;20020;-73
2022/01/21 11:21:53;;;;;;;23.73;7.80;;;;;;;3.83;100.00;103333.06;5253505;28;20478;-73
2022/01/21 11:24:25;;;;;;;21.42;7.57;;;;;;;3.90;100.00;103317.13;5255253;28;20367;-73
2022/01/21 11:27:13;;;;;;;26.20;7.07;;;;;;;3.93;100.00;103316.22;5253033;28;20070;-73
2022/01/21 11:29:46;;;;;;;22.70;7.30;;;;;;;3.94;100.00;103320.63;5254440;28;20016;-72
2022/01/21 11:32:18;;;;;;;21.27;7.35;;;;;;;3.97;100.00;103315.34;5254201;28;20031;-72
2022/01/21 11:34:49;;;;;;;21.45;6.53;;;;;;;4.07;100.00;103314.34;5249384;28;20029;-73
2022/01/21 11:37:23;;;;;;;20.05;6.45;;;;;;;4.07;100.00;103306.44;5252727;28;20025;-72
2022/01/21 11:39:55;;;;;;;18.85;5.40;;;;;;;4.12;100.00;103309.91;5253490;28;20029;-72
2022/01/21 11:42:26;;;;;;;16.48;5.50;;;;;;;4.11;100.00;103308.16;5253675;28;20055;-72
2022/01/21 11:45:14;;;;;;;16.35;4.80;;;;;;;4.05;100.00;103309.97;5253487;28;20818;-72
2022/01/21 11:48:12;;;;;;;21.17;5.93;;;;;;;4.04;100.00;103310.84;5252758;28;20029;-72
2022/01/21 11:50:44;;;;;;;17.65;5.18;;;;;;;4.06;100.00;103309.06;5249716;28;20047;-72
2022/01/21 11:53:46;;;;;;;19.80;5.88;;;;;;;4.16;100.00;103315.16;5253612;28;20650;-72
2022/01/21 11:56:33;;;;;;;17.27;5.07;;;;;;;4.19;100.00;103312.50;5253322;28;20705;-72
2022/01/21 11:59:34;;;;;;;15.27;5.18;;;;;;;4.15;100.00;103308.13;5253128;28;20332;-72
2022/01/21 12:02:14;;;;;;;15.73;4.80;;;;;;;4.17;100.00;103306.34;5252748;28;20083;-72
2022/01/21 12:04:50;;;;;;;20.25;5.60;;;;;;;4.21;100.00;103305.41;5248044;28;20486;-71
2022/01/21 12:07:48;;;;;;;14.85;5.00;;;;;;;4.29;100.00;103312.34;5246182;28;20029;-71
2022/01/21 12:10:23;;;;;;;17.67;5.00;;;;;;;4.42;100.00;103306.97;5255922;28;20029;-72
2022/01/21 12:13:14;;;;;;;19.20;5.22;;;;;;;4.49;100.00;103295.44;5244677;28;20080;-71
2022/01/21 12:18:53;;;;;;;16.42;4.53;;;;;;;4.53;100.00;103296.28;5250839;28;20045;-71
2022/01/21 12:21:30;;;;;;;17.85;4.00;;;;;;;4.49;100.00;103290.16;5246243;28;20120;-71
2022/01/21 12:24:03;;;;;;;20.50;4.30;;;;;;;4.46;100.00;103280.47;5245806;28;20116;-71
2022/01/21 12:26:34;;;;;;;17.20;3.53;;;;;;;4.46;100.00;103279.59;5242787;28;20079;-72
2022/01/21 12:29:14;;;;;;;13.07;3.75;;;;;;;4.50;100.00;103276.88;5246764;28;20399;-71
2022/01/21 12:32:12;;;;;;;11.63;4.10;;;;;;;4.46;100.00;103275.19;5249300;28;20116;-71